sensor_id;sensor_type;location;lat;lon;timestamp;pressure;altitude;pressure_sealevel;temperature;humidity
63954;BME280;50128;52.094;5.232;2023-02-13T00:00:16;102451.0;;;1.15;82.75
63954;BME280;50128;52.094;5.232;2023-02-13T00:03:32;102456.0;;;1.11;83.38
63954;BME280;50128;52.094;5.232;2023-02-13T00:05:09;102456.0;;;1.1;83.26
63954;BME280;50128;52.094;5.232;2023-02-13T00:06:47;102457.0;;;1.01;83.28
63954;BME280;50128;52.094;5.232;2023-02-13T00:08:23;102450.0;;;1.02;83.6
63954;BME280;50128;52.094;5.232;2023-02-13T00:11:37;102449.0;;;1.02;83.46
63954;BME280;50128;52.094;5.232;2023-02-13T00:13:14;102448.0;;;1.02;83.99
63954;BME280;50128;52.094;5.232;2023-02-13T00:14:51;102444.0;;;1.1;83.41
63954;BME280;50128;52.094;5.232;2023-02-13T00:18:05;102447.0;;;1.07;83.33
63954;BME280;50128;52.094;5.232;2023-02-13T00:19:42;102443.0;;;1.01;83.64
63954;BME280;50128;52.094;5.232;2023-02-13T00:21:19;102442.0;;;1.06;83.43
63954;BME280;50128;52.094;5.232;2023-02-13T00:22:57;102442.0;;;1.07;83.17
63954;BME280;50128;52.094;5.232;2023-02-13T00:26:12;102441.00000000001;;;1.01;83.57
63954;BME280;50128;52.094;5.232;2023-02-13T00:27:51;102438.00000000001;;;1.06;83.1
63954;BME280;50128;52.094;5.232;2023-02-13T00:29:29;102438.00000000001;;;1.07;83.04
63954;BME280;50128;52.094;5.232;2023-02-13T00:32:44;102434.99999999999;;;1.08;82.99
63954;BME280;50128;52.094;5.232;2023-02-13T00:34:21;102433.99999999999;;;1.05;82.83
63954;BME280;50128;52.094;5.232;2023-02-13T00:36:03;102433.0;;;0.98;83.37
63954;BME280;50128;52.094;5.232;2023-02-13T00:37:41;102430.0;;;0.97;83.66
63954;BME280;50128;52.094;5.232;2023-02-13T00:40:54;102427.0;;;0.98;83.61
63954;BME280;50128;52.094;5.232;2023-02-13T00:42:30;102428.0;;;0.99;83.23
63954;BME280;50128;52.094;5.232;2023-02-13T00:44:08;102430.0;;;1.05;82.95
63954;BME280;50128;52.094;5.232;2023-02-13T00:47:21;102436.99999999999;;;0.99;82.99
63954;BME280;50128;52.094;5.232;2023-02-13T00:48:57;102433.99999999999;;;1.08;83.16
63954;BME280;50128;52.094;5.232;2023-02-13T00:50:34;102436.99999999999;;;1.02;83.16
63954;BME280;50128;52.094;5.232;2023-02-13T00:52:11;102433.99999999999;;;1.03;83.01
63954;BME280;50128;52.094;5.232;2023-02-13T00:55:25;102425.0;;;1.11;82.73
63954;BME280;50128;52.094;5.232;2023-02-13T00:57:02;102424.0;;;1.17;82.55
63954;BME280;50128;52.094;5.232;2023-02-13T00:58:39;102420.0;;;1.08;82.68
63954;BME280;50128;52.094;5.232;2023-02-13T01:01:52;102423.0;;;0.98;83.01
63954;BME280;50128;52.094;5.232;2023-02-13T01:03:29;102423.0;;;1.04;83.26
63954;BME280;50128;52.094;5.232;2023-02-13T01:05:07;102421.0;;;1.07;82.73
63954;BME280;50128;52.094;5.232;2023-02-13T01:08:20;102427.0;;;1.15;82.48
63954;BME280;50128;52.094;5.232;2023-02-13T01:09:56;102429.0;;;1.1;82.6
63954;BME280;50128;52.094;5.232;2023-02-13T01:11:33;102429.0;;;1.06;82.55
63954;BME280;50128;52.094;5.232;2023-02-13T01:13:10;102431.0;;;1.0;82.85
63954;BME280;50128;52.094;5.232;2023-02-13T01:16:26;102429.0;;;1.1;82.34
63954;BME280;50128;52.094;5.232;2023-02-13T01:18:03;102426.0;;;0.95;82.7
63954;BME280;50128;52.094;5.232;2023-02-13T01:19:40;102426.0;;;1.08;82.55
63954;BME280;50128;52.094;5.232;2023-02-13T01:22:56;102421.0;;;1.05;82.74
63954;BME280;50128;52.094;5.232;2023-02-13T01:24:33;102419.0;;;0.99;82.93
63954;BME280;50128;52.094;5.232;2023-02-13T01:26:15;102422.0;;;0.98;82.92
63954;BME280;50128;52.094;5.232;2023-02-13T01:27:53;102420.0;;;0.99;82.91
63954;BME280;50128;52.094;5.232;2023-02-13T01:31:07;102417.0;;;0.94;82.84
63954;BME280;50128;52.094;5.232;2023-02-13T01:32:45;102413.00000000001;;;0.94;82.94
63954;BME280;50128;52.094;5.232;2023-02-13T01:34:22;102418.0;;;0.89;83.52
63954;BME280;50128;52.094;5.232;2023-02-13T01:37:42;102408.0;;;0.95;82.92
63954;BME280;50128;52.094;5.232;2023-02-13T01:39:19;102411.99999999999;;;0.95;83.04
63954;BME280;50128;52.094;5.232;2023-02-13T01:40:55;102416.00000000001;;;0.98;83.3
63954;BME280;50128;52.094;5.232;2023-02-13T01:42:33;102417.0;;;0.98;83.18
63954;BME280;50128;52.094;5.232;2023-02-13T01:47:07;102408.99999999999;;;0.94;83.07
63954;BME280;50128;52.094;5.232;2023-02-13T01:48:45;102411.99999999999;;;0.9;83.14
63954;BME280;50128;52.094;5.232;2023-02-13T01:52:08;102406.0;;;0.95;83.21
63954;BME280;50128;52.094;5.232;2023-02-13T01:53:49;102406.0;;;0.88;83.38
63954;BME280;50128;52.094;5.232;2023-02-13T01:55:28;102395.0;;;0.82;83.77
63954;BME280;50128;52.094;5.232;2023-02-13T01:57:11;102399.0;;;0.97;83.25
63954;BME280;50128;52.094;5.232;2023-02-13T02:00:35;102398.0;;;1.01;83.19
63954;BME280;50128;52.094;5.232;2023-02-13T02:02:13;102403.0;;;1.0;83.26
63954;BME280;50128;52.094;5.232;2023-02-13T02:03:54;102404.0;;;1.01;82.99
63954;BME280;50128;52.094;5.232;2023-02-13T02:05:33;102404.0;;;0.93;83.21
63954;BME280;50128;52.094;5.232;2023-02-13T02:09:00;102396.0;;;1.01;82.97
63954;BME280;50128;52.094;5.232;2023-02-13T02:10:40;102397.0;;;0.9;83.23
63954;BME280;50128;52.094;5.232;2023-02-13T02:12:22;102399.0;;;0.78;83.69
63954;BME280;50128;52.094;5.232;2023-02-13T02:14:02;102396.0;;;0.85;83.59
63954;BME280;50128;52.094;5.232;2023-02-13T02:17:18;102397.0;;;0.85;83.91
63954;BME280;50128;52.094;5.232;2023-02-13T02:18:57;102395.0;;;0.86;83.86
63954;BME280;50128;52.094;5.232;2023-02-13T02:20:56;102397.0;;;0.87;83.48
63954;BME280;50128;52.094;5.232;2023-02-13T02:23:45;102398.0;;;0.85;83.96
63954;BME280;50128;52.094;5.232;2023-02-13T02:27:04;102405.0;;;0.88;83.63
63954;BME280;50128;52.094;5.232;2023-02-13T02:34:19;102400.0;;;0.95;83.72
63954;BME280;50128;52.094;5.232;2023-02-13T02:36:16;102397.0;;;0.86;83.95
63954;BME280;50128;52.094;5.232;2023-02-13T02:38:14;102397.0;;;1.01;83.97
63954;BME280;50128;52.094;5.232;2023-02-13T02:40:19;102394.0;;;0.9;83.9
63954;BME280;50128;52.094;5.232;2023-02-13T02:42:08;102395.0;;;1.02;83.41
63954;BME280;50128;52.094;5.232;2023-02-13T02:43:59;102397.0;;;1.01;83.41
63954;BME280;50128;52.094;5.232;2023-02-13T02:45:48;102393.0;;;0.98;83.4
63954;BME280;50128;52.094;5.232;2023-02-13T02:50:11;102389.0;;;0.85;84.08
63954;BME280;50128;52.094;5.232;2023-02-13T02:51:57;102394.0;;;0.91;84.26
63954;BME280;50128;52.094;5.232;2023-02-13T02:53:43;102388.0;;;0.91;84.1
63954;BME280;50128;52.094;5.232;2023-02-13T02:57:14;102387.0;;;0.86;84.65
63954;BME280;50128;52.094;5.232;2023-02-13T03:07:17;102383.0;;;0.85;84.43
63954;BME280;50128;52.094;5.232;2023-02-13T03:13:36;102376.0;;;0.94;83.85
63954;BME280;50128;52.094;5.232;2023-02-13T03:15:16;102383.0;;;0.88;84.18
63954;BME280;50128;52.094;5.232;2023-02-13T03:22:30;102385.0;;;0.88;84.62
63954;BME280;50128;52.094;5.232;2023-02-13T03:24:18;102387.0;;;0.85;84.76
63954;BME280;50128;52.094;5.232;2023-02-13T03:26:17;102385.0;;;0.86;84.61
63954;BME280;50128;52.094;5.232;2023-02-13T03:30:43;102391.0;;;0.84;84.8
63954;BME280;50128;52.094;5.232;2023-02-13T03:32:38;102392.0;;;0.65;85.53
63954;BME280;50128;52.094;5.232;2023-02-13T03:34:22;102394.0;;;0.68;85.65
63954;BME280;50128;52.094;5.232;2023-02-13T03:38:28;102393.0;;;0.65;85.87
63954;BME280;50128;52.094;5.232;2023-02-13T03:40:12;102390.0;;;0.67;85.97
63954;BME280;50128;52.094;5.232;2023-02-13T03:41:56;102385.0;;;0.72;85.89
63954;BME280;50128;52.094;5.232;2023-02-13T03:45:52;102382.0;;;0.84;85.13
63954;BME280;50128;52.094;5.232;2023-02-13T03:47:31;102382.0;;;0.75;85.72
63954;BME280;50128;52.094;5.232;2023-02-13T03:50:12;102381.0;;;0.73;85.67
63954;BME280;50128;52.094;5.232;2023-02-13T03:51:55;102384.0;;;0.81;85.5
63954;BME280;50128;52.094;5.232;2023-02-13T03:53:35;102383.0;;;0.73;85.98
63954;BME280;50128;52.094;5.232;2023-02-13T03:59:28;102386.0;;;0.82;85.32
63954;BME280;50128;52.094;5.232;2023-02-13T04:01:08;102382.0;;;0.81;85.42
63954;BME280;50128;52.094;5.232;2023-02-13T04:02:53;102380.0;;;0.79;85.51
63954;BME280;50128;52.094;5.232;2023-02-13T04:06:20;102378.0;;;0.85;85.4
63954;BME280;50128;52.094;5.232;2023-02-13T04:08:02;102375.0;;;0.8;85.57
63954;BME280;50128;52.094;5.232;2023-02-13T04:09:40;102380.0;;;0.8;85.34
63954;BME280;50128;52.094;5.232;2023-02-13T04:11:24;102380.0;;;0.79;85.79
63954;BME280;50128;52.094;5.232;2023-02-13T04:13:09;102377.0;;;0.71;86.1
63954;BME280;50128;52.094;5.232;2023-02-13T04:16:36;102378.0;;;0.79;85.88
63954;BME280;50128;52.094;5.232;2023-02-13T04:18:17;102375.0;;;0.86;85.89
63954;BME280;50128;52.094;5.232;2023-02-13T04:19:57;102375.0;;;0.77;86.11
63954;BME280;50128;52.094;5.232;2023-02-13T04:21:35;102373.0;;;0.82;85.73
63954;BME280;50128;52.094;5.232;2023-02-13T04:24:51;102373.0;;;0.82;85.91
63954;BME280;50128;52.094;5.232;2023-02-13T04:26:34;102374.0;;;0.83;85.92
63954;BME280;50128;52.094;5.232;2023-02-13T04:28:11;102380.0;;;0.76;86.14
63954;BME280;50128;52.094;5.232;2023-02-13T04:29:47;102375.0;;;0.8;86.25
63954;BME280;50128;52.094;5.232;2023-02-13T04:32:59;102377.0;;;0.79;86.27
63954;BME280;50128;52.094;5.232;2023-02-13T04:34:36;102380.0;;;0.79;86.25
63954;BME280;50128;52.094;5.232;2023-02-13T04:36:13;102378.0;;;0.78;86.3
63954;BME280;50128;52.094;5.232;2023-02-13T04:39:25;102374.0;;;0.72;86.75
63954;BME280;50128;52.094;5.232;2023-02-13T04:41:01;102372.0;;;0.81;86.08
63954;BME280;50128;52.094;5.232;2023-02-13T04:42:37;102368.0;;;0.8;86.32
63954;BME280;50128;52.094;5.232;2023-02-13T04:45:50;102370.0;;;0.73;86.76
63954;BME280;50128;52.094;5.232;2023-02-13T04:47:27;102372.0;;;0.72;86.95
63954;BME280;50128;52.094;5.232;2023-02-13T04:49:03;102368.0;;;0.69;87.07
63954;BME280;50128;52.094;5.232;2023-02-13T04:50:39;102366.0;;;0.81;86.67
63954;BME280;50128;52.094;5.232;2023-02-13T04:53:52;102362.0;;;0.76;86.81
63954;BME280;50128;52.094;5.232;2023-02-13T04:55:29;102367.0;;;0.79;86.57
63954;BME280;50128;52.094;5.232;2023-02-13T04:57:05;102362.0;;;0.69;87.23
63954;BME280;50128;52.094;5.232;2023-02-13T05:00:18;102360.0;;;0.72;87.2
63954;BME280;50128;52.094;5.232;2023-02-13T05:01:55;102357.0;;;0.8;86.8
63954;BME280;50128;52.094;5.232;2023-02-13T05:03:31;102355.0;;;0.76;87.11
63954;BME280;50128;52.094;5.232;2023-02-13T05:06:44;102349.0;;;0.82;86.86
63954;BME280;50128;52.094;5.232;2023-02-13T05:08:20;102345.0;;;0.82;86.92
63954;BME280;50128;52.094;5.232;2023-02-13T05:09:56;102348.0;;;0.88;86.65
63954;BME280;50128;52.094;5.232;2023-02-13T05:11:32;102348.0;;;0.76;87.12
63954;BME280;50128;52.094;5.232;2023-02-13T05:14:45;102348.0;;;0.84;87.08
63954;BME280;50128;52.094;5.232;2023-02-13T05:16:21;102351.0;;;0.78;87.29
63954;BME280;50128;52.094;5.232;2023-02-13T05:17:57;102347.0;;;0.75;87.28
63954;BME280;50128;52.094;5.232;2023-02-13T05:23:31;102346.0;;;0.69;87.77
63954;BME280;50128;52.094;5.232;2023-02-13T05:25:07;102345.0;;;0.72;88.05
63954;BME280;50128;52.094;5.232;2023-02-13T05:26:44;102342.0;;;0.79;87.71
63954;BME280;50128;52.094;5.232;2023-02-13T05:29:24;102342.0;;;0.65;88.18
63954;BME280;50128;52.094;5.232;2023-02-13T05:31:01;102338.0;;;0.65;88.59
63954;BME280;50128;52.094;5.232;2023-02-13T05:32:37;102340.0;;;0.66;88.45
63954;BME280;50128;52.094;5.232;2023-02-13T05:35:51;102344.0;;;0.64;88.67
63954;BME280;50128;52.094;5.232;2023-02-13T05:37:27;102344.0;;;0.66;88.8
63954;BME280;50128;52.094;5.232;2023-02-13T05:39:03;102343.0;;;0.62;88.75
63954;BME280;50128;52.094;5.232;2023-02-13T05:42:15;102342.0;;;0.57;89.2
63954;BME280;50128;52.094;5.232;2023-02-13T05:43:51;102341.0;;;0.69;88.84
63954;BME280;50128;52.094;5.232;2023-02-13T05:45:27;102341.0;;;0.7;88.65
63954;BME280;50128;52.094;5.232;2023-02-13T05:48:40;102339.0;;;0.78;88.37
63954;BME280;50128;52.094;5.232;2023-02-13T05:50:16;102344.0;;;0.76;88.55
63954;BME280;50128;52.094;5.232;2023-02-13T05:51:52;102343.0;;;0.79;88.44
63954;BME280;50128;52.094;5.232;2023-02-13T05:53:28;102344.0;;;0.83;88.26
63954;BME280;50128;52.094;5.232;2023-02-13T05:56:42;102345.0;;;0.79;88.36
63954;BME280;50128;52.094;5.232;2023-02-13T05:58:19;102341.0;;;0.76;88.8
63954;BME280;50128;52.094;5.232;2023-02-13T05:59:56;102342.0;;;0.77;88.95
63954;BME280;50128;52.094;5.232;2023-02-13T06:03:09;102345.0;;;0.84;88.7
63954;BME280;50128;52.094;5.232;2023-02-13T06:04:45;102346.0;;;0.76;88.93
63954;BME280;50128;52.094;5.232;2023-02-13T06:06:22;102348.0;;;0.84;88.64
63954;BME280;50128;52.094;5.232;2023-02-13T06:09:34;102346.0;;;0.7;89.23
63954;BME280;50128;52.094;5.232;2023-02-13T06:11:10;102346.0;;;0.64;89.55
63954;BME280;50128;52.094;5.232;2023-02-13T06:12:46;102348.0;;;0.65;89.65
63954;BME280;50128;52.094;5.232;2023-02-13T06:14:22;102344.0;;;0.63;89.9
63954;BME280;50128;52.094;5.232;2023-02-13T06:17:35;102348.0;;;0.64;90.12
63954;BME280;50128;52.094;5.232;2023-02-13T06:19:11;102342.0;;;0.65;89.89
63954;BME280;50128;52.094;5.232;2023-02-13T06:20:47;102347.0;;;0.75;89.7
63954;BME280;50128;52.094;5.232;2023-02-13T06:23:59;102351.0;;;0.78;89.51
63954;BME280;50128;52.094;5.232;2023-02-13T06:25:36;102348.0;;;0.73;89.72
63954;BME280;50128;52.094;5.232;2023-02-13T06:27:13;102346.0;;;0.77;89.38
63954;BME280;50128;52.094;5.232;2023-02-13T06:30:25;102349.0;;;0.7;89.91
63954;BME280;50128;52.094;5.232;2023-02-13T06:32:01;102353.0;;;0.78;89.41
63954;BME280;50128;52.094;5.232;2023-02-13T06:33:38;102350.0;;;0.71;89.8
63954;BME280;50128;52.094;5.232;2023-02-13T06:35:15;102349.0;;;0.7;90.0
63954;BME280;50128;52.094;5.232;2023-02-13T06:38:28;102349.0;;;0.62;90.32
63954;BME280;50128;52.094;5.232;2023-02-13T06:40:05;102345.0;;;0.63;90.51
63954;BME280;50128;52.094;5.232;2023-02-13T06:41:42;102348.0;;;0.71;90.27
63954;BME280;50128;52.094;5.232;2023-02-13T06:44:55;102347.0;;;0.67;90.42
63954;BME280;50128;52.094;5.232;2023-02-13T06:46:31;102351.0;;;0.72;90.28
63954;BME280;50128;52.094;5.232;2023-02-13T06:48:07;102349.0;;;0.62;90.62
63954;BME280;50128;52.094;5.232;2023-02-13T06:51:19;102349.0;;;0.63;90.89
63954;BME280;50128;52.094;5.232;2023-02-13T06:52:56;102349.0;;;0.6;90.78
63954;BME280;50128;52.094;5.232;2023-02-13T06:54:32;102353.0;;;0.73;90.38
63954;BME280;50128;52.094;5.232;2023-02-13T06:56:08;102353.0;;;0.7;90.61
63954;BME280;50128;52.094;5.232;2023-02-13T06:59:22;102352.0;;;0.66;90.82
63954;BME280;50128;52.094;5.232;2023-02-13T07:00:59;102355.0;;;0.72;90.47
63954;BME280;50128;52.094;5.232;2023-02-13T07:02:36;102360.0;;;0.74;90.53
63954;BME280;50128;52.094;5.232;2023-02-13T07:05:51;102357.0;;;0.69;90.69
63954;BME280;50128;52.094;5.232;2023-02-13T07:07:31;102357.0;;;0.71;90.46
63954;BME280;50128;52.094;5.232;2023-02-13T07:09:07;102355.0;;;0.71;90.69
63954;BME280;50128;52.094;5.232;2023-02-13T07:12:20;102349.0;;;0.68;90.75
63954;BME280;50128;52.094;5.232;2023-02-13T07:13:56;102353.0;;;0.6;91.22
63954;BME280;50128;52.094;5.232;2023-02-13T07:15:33;102358.0;;;0.49;91.85
63954;BME280;50128;52.094;5.232;2023-02-13T07:17:10;102356.0;;;0.42;92.46
63954;BME280;50128;52.094;5.232;2023-02-13T07:20:23;102355.0;;;0.42;92.6
63954;BME280;50128;52.094;5.232;2023-02-13T07:22:00;102357.0;;;0.42;92.55
63954;BME280;50128;52.094;5.232;2023-02-13T07:23:36;102355.0;;;0.37;92.73
63954;BME280;50128;52.094;5.232;2023-02-13T07:26:48;102353.0;;;0.4;92.66
63954;BME280;50128;52.094;5.232;2023-02-13T07:28:25;102351.0;;;0.31;93.17
63954;BME280;50128;52.094;5.232;2023-02-13T07:30:02;102352.0;;;0.25;93.49
63954;BME280;50128;52.094;5.232;2023-02-13T07:33:15;102356.0;;;0.23;93.88
63954;BME280;50128;52.094;5.232;2023-02-13T07:34:51;102357.0;;;0.17;94.16
63954;BME280;50128;52.094;5.232;2023-02-13T07:36:27;102357.0;;;0.12;94.57
63954;BME280;50128;52.094;5.232;2023-02-13T07:38:03;102357.0;;;0.09;94.6
63954;BME280;50128;52.094;5.232;2023-02-13T07:41:17;102360.0;;;0.06;95.01
63954;BME280;50128;52.094;5.232;2023-02-13T07:42:53;102365.0;;;0.15;94.79
63954;BME280;50128;52.094;5.232;2023-02-13T07:44:29;102366.0;;;0.15;94.89
63954;BME280;50128;52.094;5.232;2023-02-13T07:47:41;102369.0;;;0.18;95.0
63954;BME280;50128;52.094;5.232;2023-02-13T07:49:17;102372.0;;;0.19;95.0
63954;BME280;50128;52.094;5.232;2023-02-13T07:50:58;102373.0;;;0.15;95.36
63954;BME280;50128;52.094;5.232;2023-02-13T07:54:12;102374.0;;;0.23;95.0
63954;BME280;50128;52.094;5.232;2023-02-13T07:55:49;102378.0;;;0.16;95.46
63954;BME280;50128;52.094;5.232;2023-02-13T07:57:25;102378.0;;;0.19;95.42
63954;BME280;50128;52.094;5.232;2023-02-13T07:59:01;102380.0;;;0.2;95.59
63954;BME280;50128;52.094;5.232;2023-02-13T08:02:14;102384.0;;;0.12;95.84
63954;BME280;50128;52.094;5.232;2023-02-13T08:03:51;102389.0;;;0.25;95.54
63954;BME280;50128;52.094;5.232;2023-02-13T08:05:28;102392.0;;;0.2;95.86
63954;BME280;50128;52.094;5.232;2023-02-13T08:08:41;102394.0;;;0.19;96.05
63954;BME280;50128;52.094;5.232;2023-02-13T08:12:08;102397.0;;;0.23;96.18
63954;BME280;50128;52.094;5.232;2023-02-13T08:13:52;102403.0;;;0.36;95.63
63954;BME280;50128;52.094;5.232;2023-02-13T08:17:04;102400.0;;;0.47;95.24
63954;BME280;50128;52.094;5.232;2023-02-13T08:18:40;102403.0;;;0.45;95.5
63954;BME280;50128;52.094;5.232;2023-02-13T08:20:16;102403.0;;;0.58;94.99
63954;BME280;50128;52.094;5.232;2023-02-13T08:23:30;102401.0;;;0.53;95.17
63954;BME280;50128;52.094;5.232;2023-02-13T08:25:06;102401.0;;;0.64;95.0
63954;BME280;50128;52.094;5.232;2023-02-13T08:26:43;102400.0;;;0.73;94.84
63954;BME280;50128;52.094;5.232;2023-02-13T08:28:19;102397.0;;;0.83;94.39
63954;BME280;50128;52.094;5.232;2023-02-13T08:31:32;102402.0;;;0.86;94.04
63954;BME280;50128;52.094;5.232;2023-02-13T08:33:09;102399.0;;;0.96;93.91
63954;BME280;50128;52.094;5.232;2023-02-13T08:34:45;102397.0;;;1.05;93.39
63954;BME280;50128;52.094;5.232;2023-02-13T08:38:00;102400.0;;;1.04;93.42
63954;BME280;50128;52.094;5.232;2023-02-13T08:39:37;102397.0;;;1.14;93.28
63954;BME280;50128;52.094;5.232;2023-02-13T08:41:14;102398.0;;;1.27;92.45
63954;BME280;50128;52.094;5.232;2023-02-13T08:42:51;102396.0;;;1.4;92.02
63954;BME280;50128;52.094;5.232;2023-02-13T08:46:03;102398.0;;;1.38;91.48
63954;BME280;50128;52.094;5.232;2023-02-13T08:47:40;102397.0;;;1.55;90.93
63954;BME280;50128;52.094;5.232;2023-02-13T08:49:17;102395.0;;;1.71;90.05
63954;BME280;50128;52.094;5.232;2023-02-13T08:52:29;102396.0;;;1.83;89.52
63954;BME280;50128;52.094;5.232;2023-02-13T08:54:05;102395.0;;;2.04;88.77
63954;BME280;50128;52.094;5.232;2023-02-13T08:55:41;102402.0;;;2.19;88.19
63954;BME280;50128;52.094;5.232;2023-02-13T08:58:54;102402.0;;;2.27;88.02
63954;BME280;50128;52.094;5.232;2023-02-13T09:00:31;102408.0;;;2.35;87.16
63954;BME280;50128;52.094;5.232;2023-02-13T09:02:12;102404.0;;;2.5;86.65
63954;BME280;50128;52.094;5.232;2023-02-13T09:03:49;102405.0;;;2.31;86.83
63954;BME280;50128;52.094;5.232;2023-02-13T09:07:02;102408.0;;;2.07;87.71
63954;BME280;50128;52.094;5.232;2023-02-13T09:08:39;102407.0;;;2.38;86.87
63954;BME280;50128;52.094;5.232;2023-02-13T09:10:16;102405.0;;;2.37;87.09
63954;BME280;50128;52.094;5.232;2023-02-13T09:13:33;102406.0;;;2.31;86.98
63954;BME280;50128;52.094;5.232;2023-02-13T09:15:11;102406.0;;;2.29;87.14
63954;BME280;50128;52.094;5.232;2023-02-13T09:16:47;102409.99999999999;;;2.31;87.71
63954;BME280;50128;52.094;5.232;2023-02-13T09:18:23;102408.99999999999;;;2.12;88.01
63954;BME280;50128;52.094;5.232;2023-02-13T09:21:35;102408.99999999999;;;2.13;88.2
63954;BME280;50128;52.094;5.232;2023-02-13T09:23:11;102407.0;;;2.27;87.96
63954;BME280;50128;52.094;5.232;2023-02-13T09:24:48;102403.0;;;2.25;87.98
63954;BME280;50128;52.094;5.232;2023-02-13T09:28:00;102400.0;;;2.37;87.66
63954;BME280;50128;52.094;5.232;2023-02-13T09:29:36;102402.0;;;2.5;86.71
63954;BME280;50128;52.094;5.232;2023-02-13T09:31:16;102404.0;;;2.52;86.77
63954;BME280;50128;52.094;5.232;2023-02-13T09:34:30;102403.0;;;2.5;86.67
63954;BME280;50128;52.094;5.232;2023-02-13T09:36:07;102401.0;;;2.62;86.16
63954;BME280;50128;52.094;5.232;2023-02-13T09:37:45;102400.0;;;2.71;86.28
63954;BME280;50128;52.094;5.232;2023-02-13T09:39:22;102403.0;;;2.72;85.72
63954;BME280;50128;52.094;5.232;2023-02-13T09:42:38;102403.0;;;2.69;85.57
63954;BME280;50128;52.094;5.232;2023-02-13T09:44:35;102399.0;;;2.84;84.76
63954;BME280;50128;52.094;5.232;2023-02-13T09:46:17;102402.0;;;2.89;83.73
63954;BME280;50128;52.094;5.232;2023-02-13T09:47:55;102400.0;;;2.81;83.96
63954;BME280;50128;52.094;5.232;2023-02-13T09:51:15;102400.0;;;3.04;83.82
63954;BME280;50128;52.094;5.232;2023-02-13T09:52:54;102400.0;;;3.07;83.43
63954;BME280;50128;52.094;5.232;2023-02-13T09:54:32;102401.0;;;3.09;82.87
63954;BME280;50128;52.094;5.232;2023-02-13T09:56:12;102403.0;;;3.14;83.17
63954;BME280;50128;52.094;5.232;2023-02-13T09:59:45;102400.0;;;3.09;83.6
63954;BME280;50128;52.094;5.232;2023-02-13T10:01:29;102397.0;;;3.07;83.35
63954;BME280;50128;52.094;5.232;2023-02-13T10:03:27;102395.0;;;3.19;82.77
63954;BME280;50128;52.094;5.232;2023-02-13T10:05:16;102393.0;;;3.34;82.72
63954;BME280;50128;52.094;5.232;2023-02-13T10:07:06;102396.0;;;3.28;82.63
63954;BME280;50128;52.094;5.232;2023-02-13T10:08:58;102401.0;;;3.44;81.86
63954;BME280;50128;52.094;5.232;2023-02-13T10:12:43;102397.0;;;3.47;80.97
63954;BME280;50128;52.094;5.232;2023-02-13T10:14:26;102396.0;;;3.36;81.27
63954;BME280;50128;52.094;5.232;2023-02-13T10:16:09;102399.0;;;3.45;81.58
63954;BME280;50128;52.094;5.232;2023-02-13T10:17:53;102398.0;;;3.51;80.95
63954;BME280;50128;52.094;5.232;2023-02-13T10:19:36;102397.0;;;3.57;80.7
63954;BME280;50128;52.094;5.232;2023-02-13T10:21:19;102398.0;;;3.57;80.37
63954;BME280;50128;52.094;5.232;2023-02-13T10:24:48;102394.0;;;3.54;80.22
63954;BME280;50128;52.094;5.232;2023-02-13T10:26:42;102391.0;;;3.52;80.49
63954;BME280;50128;52.094;5.232;2023-02-13T10:28:29;102392.0;;;3.59;80.27
63954;BME280;50128;52.094;5.232;2023-02-13T10:30:18;102392.0;;;3.63;80.2
63954;BME280;50128;52.094;5.232;2023-02-13T10:31:59;102392.0;;;3.62;79.99
63954;BME280;50128;52.094;5.232;2023-02-13T10:35:26;102384.0;;;3.65;80.12
63954;BME280;50128;52.094;5.232;2023-02-13T10:37:10;102384.0;;;3.73;79.48
63954;BME280;50128;52.094;5.232;2023-02-13T10:38:59;102382.0;;;3.89;78.86
63954;BME280;50128;52.094;5.232;2023-02-13T10:40:39;102381.0;;;3.9;79.33
63954;BME280;50128;52.094;5.232;2023-02-13T10:42:28;102387.0;;;3.73;78.69
63954;BME280;50128;52.094;5.232;2023-02-13T10:46:13;102385.0;;;3.95;78.88
63954;BME280;50128;52.094;5.232;2023-02-13T10:48:04;102380.0;;;3.84;78.36
63954;BME280;50128;52.094;5.232;2023-02-13T10:49:59;102380.0;;;4.05;78.17
63954;BME280;50128;52.094;5.232;2023-02-13T10:51:42;102377.0;;;4.24;77.36
63954;BME280;50128;52.094;5.232;2023-02-13T10:53:30;102381.0;;;4.16;78.66
63954;BME280;50128;52.094;5.232;2023-02-13T10:55:33;102383.0;;;4.16;78.08
63954;BME280;50128;52.094;5.232;2023-02-13T10:57:17;102376.0;;;4.25;77.83
63954;BME280;50128;52.094;5.232;2023-02-13T10:59:14;102378.0;;;4.17;77.27
63954;BME280;50128;52.094;5.232;2023-02-13T11:00:57;102383.0;;;4.43;76.98
63954;BME280;50128;52.094;5.232;2023-02-13T11:04:15;102376.0;;;4.53;76.69
63954;BME280;50128;52.094;5.232;2023-02-13T11:05:55;102381.0;;;4.36;77.06
63954;BME280;50128;52.094;5.232;2023-02-13T11:07:33;102380.0;;;4.43;76.64
63954;BME280;50128;52.094;5.232;2023-02-13T11:10:49;102377.0;;;4.45;76.02
63954;BME280;50128;52.094;5.232;2023-02-13T11:12:27;102376.0;;;4.57;75.53
63954;BME280;50128;52.094;5.232;2023-02-13T11:14:09;102377.0;;;4.72;75.67
63954;BME280;50128;52.094;5.232;2023-02-13T11:15:56;102375.0;;;4.82;74.95
63954;BME280;50128;52.094;5.232;2023-02-13T11:19:19;102375.0;;;4.83;74.23
63954;BME280;50128;52.094;5.232;2023-02-13T11:20:59;102372.0;;;4.66;74.41
63954;BME280;50128;52.094;5.232;2023-02-13T11:22:38;102368.0;;;4.66;74.87
63954;BME280;50128;52.094;5.232;2023-02-13T11:24:18;102363.0;;;4.82;75.33
63954;BME280;50128;52.094;5.232;2023-02-13T11:27:37;102363.0;;;4.86;74.45
63954;BME280;50128;52.094;5.232;2023-02-13T11:29:17;102359.0;;;4.91;73.81
63954;BME280;50128;52.094;5.232;2023-02-13T11:31:10;102356.0;;;4.99;73.98
63954;BME280;50128;52.094;5.232;2023-02-13T11:32:57;102351.0;;;4.95;74.09
63954;BME280;50128;52.094;5.232;2023-02-13T11:34:33;102349.0;;;4.88;73.89
63954;BME280;50128;52.094;5.232;2023-02-13T11:38:10;102348.0;;;4.74;74.34
63954;BME280;50128;52.094;5.232;2023-02-13T11:39:56;102348.0;;;4.78;74.78
63954;BME280;50128;52.094;5.232;2023-02-13T11:41:38;102342.0;;;4.75;74.3
63954;BME280;50128;52.094;5.232;2023-02-13T11:43:18;102340.0;;;4.87;74.24
63954;BME280;50128;52.094;5.232;2023-02-13T11:45:06;102336.0;;;4.91;73.16
63954;BME280;50128;52.094;5.232;2023-02-13T11:48:34;102339.0;;;4.78;74.05
63954;BME280;50128;52.094;5.232;2023-02-13T11:50:20;102338.0;;;4.87;73.97